Terminal Aerodrome Forecast
Issued by NWS Louisville, KY

Home | Current Version | Previous Version | Text Only | Print | Product List | Glossary On
Versions: 1 2 3 4 5 6 7 8 9 10 11 12 13 14 15 16 17 18
000
FTUS43 KLMK 242100 AAA
TAFLEX
TAF AMD
KLEX 242126Z 2421/2518 24011KT P6SM BKN025
      TEMPO 2423/2424 SCT025 BKN250
     FM250000 22006KT P6SM FEW020 SCT250
     FM251200 18006KT P6SM SCT010 BKN070=

USA.gov is the U.S. government's official web portal to all federal, state and local government web resources and services.